PWSweather.com
Personal Weather Stations
Station Observations
DELHOVEN
DormagenDE 41540

DormagenDE 41540

Lat: 51.083, Lon: 6.775

Elevation: 120

Station Type: WH1080

Latest ConditionsUpdated 10:20:15 AM GMT+01:01 Thursday, Oct 23, 2014
Currently Today's Max Today's Min Today's Average
Temperature 54.5°F12.5°C 54.5°F12.5°C 48.7°F9.3°C 50.0°F10.0°C
Dew Point 48.8°F9.3°C 49.3°F9.6°C 45.0°F7.2°C 46.6°F8.1°C
Winds 2.2 mph NW3.5 kmh NW 5.4 mph NW8.7 kmh NW - 2.8 mph 4.5 kmh
Wind Gusts 3.8 mph6.1 kmh 9.2 mph14.8 kmh - -
Humidity 81% 90% 81% 88%
Pressure 30.25 in1024.4 mb 30.26 in1024.7 mb 30.21 in1023.0 mb -
Hour Temp Dew Point Humidity Winds Wind Gusts Pressure Precip Precip Rate Daily Precip Total
10:20 AM 54.5°F12.5°C 48.8°F9.3°C 81% 2.2 mph NW3.5 kmh NW 3.8 mph6.1 kmh 30.25 in1024.4 mb 0.00 in0.0 mm 0.00 in/hr0.0 mm/hr 0.00 in0.0 mm
10:15 AM 54.5°F12.5°C 48.8°F9.3°C 81% 4.5 mph NW7.2 kmh NW 7.6 mph12.2 kmh 30.26 in1024.7 mb 0.00 in0.0 mm 0.00 in/hr0.0 mm/hr 0.00 in0.0 mm
10:10 AM 54.5°F12.5°C 48.8°F9.3°C 81% 3.8 mph SW6.1 kmh SW 5.4 mph8.7 kmh 30.26 in1024.7 mb 0.00 in0.0 mm 0.00 in/hr0.0 mm/hr 0.00 in0.0 mm
10:05 AM 54.5°F12.5°C 48.8°F9.3°C 81% 4.5 mph SW7.2 kmh SW 7.6 mph12.2 kmh 30.25 in1024.4 mb 0.00 in0.0 mm 0.00 in/hr0.0 mm/hr 0.00 in0.0 mm
10:00 AM 54.5°F12.5°C 48.8°F9.3°C 81% 4.5 mph SW7.2 kmh SW 6.9 mph11.1 kmh 30.26 in1024.7 mb 0.00 in0.0 mm 0.00 in/hr0.0 mm/hr 0.00 in0.0 mm
09:55 AM 54.3°F12.4°C 48.6°F9.2°C 81% 4.5 mph SW7.2 kmh SW 9.2 mph14.8 kmh 30.25 in1024.4 mb 0.00 in0.0 mm 0.00 in/hr0.0 mm/hr 0.00 in0.0 mm
09:50 AM 54.1°F12.3°C 48.8°F9.3°C 82% 4.5 mph SW7.2 kmh SW 6.9 mph11.1 kmh 30.25 in1024.4 mb 0.00 in0.0 mm 0.00 in/hr0.0 mm/hr 0.00 in0.0 mm
09:45 AM 54.0°F12.2°C 48.6°F9.2°C 82% 4.5 mph SW7.2 kmh SW 8.3 mph13.4 kmh 30.25 in1024.4 mb 0.00 in0.0 mm 0.00 in/hr0.0 mm/hr 0.00 in0.0 mm
09:40 AM 53.8°F12.1°C 48.4°F9.1°C 82% 5.4 mph NW8.7 kmh NW 8.3 mph13.4 kmh 30.25 in1024.4 mb 0.00 in0.0 mm 0.00 in/hr0.0 mm/hr 0.00 in0.0 mm
09:35 AM 53.8°F12.1°C 48.7°F9.3°C 83% 3.8 mph W6.1 kmh W 6.0 mph9.7 kmh 30.25 in1024.4 mb 0.00 in0.0 mm 0.00 in/hr0.0 mm/hr 0.00 in0.0 mm
09:30 AM 53.8°F12.1°C 48.7°F9.3°C 83% 3.8 mph SW6.1 kmh SW 6.0 mph9.7 kmh 30.25 in1024.4 mb 0.00 in0.0 mm 0.00 in/hr0.0 mm/hr 0.00 in0.0 mm
09:25 AM 53.8°F12.1°C 49.1°F9.5°C 84% 3.8 mph SE6.1 kmh SE 5.4 mph8.7 kmh 30.25 in1024.4 mb 0.00 in0.0 mm 0.00 in/hr0.0 mm/hr 0.00 in0.0 mm
09:20 AM 53.6°F12.0°C 49.2°F9.6°C 85% 3.8 mph SW6.1 kmh SW 6.0 mph9.7 kmh 30.25 in1024.4 mb 0.00 in0.0 mm 0.00 in/hr0.0 mm/hr 0.00 in0.0 mm
09:15 AM 53.2°F11.8°C 49.2°F9.6°C 86% 3.1 mph S5.0 kmh S 6.0 mph9.7 kmh 30.25 in1024.4 mb 0.00 in0.0 mm 0.00 in/hr0.0 mm/hr 0.00 in0.0 mm
09:10 AM 53.1°F11.7°C 49.3°F9.6°C 87% 0.7 mph S1.1 kmh S 3.1 mph5.0 kmh 30.25 in1024.4 mb 0.00 in0.0 mm 0.00 in/hr0.0 mm/hr 0.00 in0.0 mm
09:05 AM 52.3°F11.3°C 48.6°F9.2°C 87% 2.2 mph S3.5 kmh S 3.8 mph6.1 kmh 30.25 in1024.4 mb 0.00 in0.0 mm 0.00 in/hr0.0 mm/hr 0.00 in0.0 mm
09:00 AM 52.3°F11.3°C 48.6°F9.2°C 87% 2.2 mph S3.5 kmh S 3.8 mph6.1 kmh 30.25 in1024.4 mb 0.00 in0.0 mm 0.00 in/hr0.0 mm/hr 0.00 in0.0 mm
08:55 AM 52.2°F11.2°C 48.7°F9.3°C 88% 1.6 mph NW2.6 kmh NW 3.1 mph5.0 kmh 30.25 in1024.4 mb 0.00 in0.0 mm 0.00 in/hr0.0 mm/hr 0.00 in0.0 mm
08:50 AM 52.0°F11.1°C 48.5°F9.2°C 88% 2.2 mph W3.5 kmh W 4.5 mph7.2 kmh 30.25 in1024.4 mb 0.00 in0.0 mm 0.00 in/hr0.0 mm/hr 0.00 in0.0 mm
08:45 AM 51.6°F10.9°C 48.5°F9.2°C 89% 4.5 mph SW7.2 kmh SW 6.0 mph9.7 kmh 30.25 in1024.4 mb 0.00 in0.0 mm 0.00 in/hr0.0 mm/hr 0.00 in0.0 mm
08:40 AM 51.4°F10.8°C 48.3°F9.1°C 89% 1.6 mph S2.6 kmh S 2.2 mph3.5 kmh 30.25 in1024.4 mb 0.00 in0.0 mm 0.00 in/hr0.0 mm/hr 0.00 in0.0 mm
08:35 AM 51.1°F10.6°C 48.0°F8.9°C 89% Calm Calm 1.6 mph2.6 kmh 30.25 in1024.4 mb 0.00 in0.0 mm 0.00 in/hr0.0 mm/hr 0.00 in0.0 mm
08:30 AM 50.9°F10.5°C 47.8°F8.8°C 89% 1.6 mph W2.6 kmh W 3.1 mph5.0 kmh 30.25 in1024.4 mb 0.00 in0.0 mm 0.00 in/hr0.0 mm/hr 0.00 in0.0 mm
08:25 AM 50.7°F10.4°C 47.6°F8.7°C 89% 1.6 mph SW2.6 kmh SW 3.1 mph5.0 kmh 30.25 in1024.4 mb 0.00 in0.0 mm 0.00 in/hr0.0 mm/hr 0.00 in0.0 mm
08:20 AM 50.5°F10.3°C 47.4°F8.6°C 89% 1.6 mph S2.6 kmh S 2.2 mph3.5 kmh 30.25 in1024.4 mb 0.00 in0.0 mm 0.00 in/hr0.0 mm/hr 0.00 in0.0 mm
08:15 AM 50.4°F10.2°C 47.2°F8.4°C 89% 2.2 mph SW3.5 kmh SW 3.1 mph5.0 kmh 30.24 in1024.0 mb 0.00 in0.0 mm 0.00 in/hr0.0 mm/hr 0.00 in0.0 mm
08:10 AM 50.2°F10.1°C 47.1°F8.4°C 89% 2.2 mph SW3.5 kmh SW 3.8 mph6.1 kmh 30.25 in1024.4 mb 0.00 in0.0 mm 0.00 in/hr0.0 mm/hr 0.00 in0.0 mm
08:05 AM 50.2°F10.1°C 47.1°F8.4°C 89% 0.7 mph S1.1 kmh S 2.2 mph3.5 kmh 30.24 in1024.0 mb 0.00 in0.0 mm 0.00 in/hr0.0 mm/hr 0.00 in0.0 mm
08:00 AM 50.0°F10.0°C 46.9°F8.3°C 89% 0.7 mph S1.1 kmh S 1.6 mph2.6 kmh 30.24 in1024.0 mb 0.00 in0.0 mm 0.00 in/hr0.0 mm/hr 0.00 in0.0 mm
07:55 AM 50.0°F10.0°C 46.9°F8.3°C 89% 0.7 mph S1.1 kmh S 2.2 mph3.5 kmh 30.24 in1024.0 mb 0.00 in0.0 mm 0.00 in/hr0.0 mm/hr 0.00 in0.0 mm
07:50 AM 49.8°F9.9°C 47.0°F8.3°C 90% Calm Calm 0.7 mph1.1 kmh 30.24 in1024.0 mb 0.00 in0.0 mm 0.00 in/hr0.0 mm/hr 0.00 in0.0 mm
07:45 AM 49.8°F9.9°C 47.0°F8.3°C 90% 1.6 mph SW2.6 kmh SW 2.2 mph3.5 kmh 30.24 in1024.0 mb 0.00 in0.0 mm 0.00 in/hr0.0 mm/hr 0.00 in0.0 mm
07:40 AM 49.6°F9.8°C 46.8°F8.2°C 90% 1.6 mph SW2.6 kmh SW 2.2 mph3.5 kmh 30.24 in1024.0 mb 0.00 in0.0 mm 0.00 in/hr0.0 mm/hr 0.00 in0.0 mm
07:35 AM 49.6°F9.8°C 46.8°F8.2°C 90% 0.7 mph S1.1 kmh S 1.6 mph2.6 kmh 30.24 in1024.0 mb 0.00 in0.0 mm 0.00 in/hr0.0 mm/hr 0.00 in0.0 mm
07:30 AM 49.5°F9.7°C 46.7°F8.2°C 90% 0.7 mph SE1.1 kmh SE 2.2 mph3.5 kmh 30.24 in1024.0 mb 0.00 in0.0 mm 0.00 in/hr0.0 mm/hr 0.00 in0.0 mm
07:25 AM 49.5°F9.7°C 46.7°F8.2°C 90% 0.7 mph SW1.1 kmh SW 2.2 mph3.5 kmh 30.24 in1024.0 mb 0.00 in0.0 mm 0.00 in/hr0.0 mm/hr 0.00 in0.0 mm
07:20 AM 49.5°F9.7°C 46.7°F8.2°C 90% Calm Calm 0.7 mph1.1 kmh 30.24 in1024.0 mb 0.00 in0.0 mm 0.00 in/hr0.0 mm/hr 0.00 in0.0 mm
07:15 AM 49.5°F9.7°C 46.7°F8.2°C 90% 1.6 mph SW2.6 kmh SW 2.2 mph3.5 kmh 30.24 in1024.0 mb 0.00 in0.0 mm 0.00 in/hr0.0 mm/hr 0.00 in0.0 mm
07:10 AM 49.5°F9.7°C 46.7°F8.2°C 90% 1.6 mph SW2.6 kmh SW 2.2 mph3.5 kmh 30.23 in1023.7 mb 0.00 in0.0 mm 0.00 in/hr0.0 mm/hr 0.00 in0.0 mm
07:05 AM 49.3°F9.6°C 46.5°F8.1°C 90% 1.6 mph S2.6 kmh S 3.1 mph5.0 kmh 30.23 in1023.7 mb 0.00 in0.0 mm 0.00 in/hr0.0 mm/hr 0.00 in0.0 mm
07:00 AM 49.3°F9.6°C 46.5°F8.1°C 90% 1.6 mph S2.6 kmh S 3.1 mph5.0 kmh 30.23 in1023.7 mb 0.00 in0.0 mm 0.00 in/hr0.0 mm/hr 0.00 in0.0 mm
06:55 AM 49.5°F9.7°C 46.7°F8.2°C 90% 0.7 mph S1.1 kmh S 2.2 mph3.5 kmh 30.23 in1023.7 mb 0.00 in0.0 mm 0.00 in/hr0.0 mm/hr 0.00 in0.0 mm
06:50 AM 49.5°F9.7°C 46.7°F8.2°C 90% 2.2 mph S3.5 kmh S 3.8 mph6.1 kmh 30.23 in1023.7 mb 0.00 in0.0 mm 0.00 in/hr0.0 mm/hr 0.00 in0.0 mm
06:45 AM 49.5°F9.7°C 46.7°F8.2°C 90% 0.7 mph S1.1 kmh S 2.2 mph3.5 kmh 30.23 in1023.7 mb 0.00 in0.0 mm 0.00 in/hr0.0 mm/hr 0.00 in0.0 mm
06:40 AM 49.5°F9.7°C 46.4°F8.0°C 89% Calm Calm 1.6 mph2.6 kmh 30.22 in1023.4 mb 0.00 in0.0 mm 0.00 in/hr0.0 mm/hr 0.00 in0.0 mm
06:35 AM 49.3°F9.6°C 46.2°F7.9°C 89% Calm Calm -- 30.23 in1023.7 mb 0.00 in0.0 mm 0.00 in/hr0.0 mm/hr 0.00 in0.0 mm
06:30 AM 49.3°F9.6°C 46.2°F7.9°C 89% Calm Calm -- 30.23 in1023.7 mb 0.00 in0.0 mm 0.00 in/hr0.0 mm/hr 0.00 in0.0 mm
06:25 AM 49.3°F9.6°C 46.2°F7.9°C 89% Calm Calm -- 30.23 in1023.7 mb 0.00 in0.0 mm 0.00 in/hr0.0 mm/hr 0.00 in0.0 mm
06:20 AM 49.3°F9.6°C 46.2°F7.9°C 89% Calm Calm 0.7 mph1.1 kmh 30.22 in1023.4 mb 0.00 in0.0 mm 0.00 in/hr0.0 mm/hr 0.00 in0.0 mm
06:15 AM 49.3°F9.6°C 46.2°F7.9°C 89% Calm Calm -- 30.22 in1023.4 mb 0.00 in0.0 mm 0.00 in/hr0.0 mm/hr 0.00 in0.0 mm
06:10 AM 49.3°F9.6°C 46.2°F7.9°C 89% 0.7 mph S1.1 kmh S 1.6 mph2.6 kmh 30.22 in1023.4 mb 0.00 in0.0 mm 0.00 in/hr0.0 mm/hr 0.00 in0.0 mm
06:05 AM 49.3°F9.6°C 46.2°F7.9°C 89% 1.6 mph S2.6 kmh S 2.2 mph3.5 kmh 30.22 in1023.4 mb 0.00 in0.0 mm 0.00 in/hr0.0 mm/hr 0.00 in0.0 mm
06:00 AM 49.3°F9.6°C 46.2°F7.9°C 89% 0.7 mph S1.1 kmh S 2.2 mph3.5 kmh 30.22 in1023.4 mb 0.00 in0.0 mm 0.00 in/hr0.0 mm/hr 0.00 in0.0 mm
05:55 AM 49.3°F9.6°C 46.2°F7.9°C 89% 0.7 mph S1.1 kmh S 1.6 mph2.6 kmh 30.22 in1023.4 mb 0.00 in0.0 mm 0.00 in/hr0.0 mm/hr 0.00 in0.0 mm
05:50 AM 49.3°F9.6°C 46.2°F7.9°C 89% 1.6 mph SW2.6 kmh SW 3.1 mph5.0 kmh 30.22 in1023.4 mb 0.00 in0.0 mm 0.00 in/hr0.0 mm/hr 0.00 in0.0 mm
05:45 AM 49.3°F9.6°C 46.2°F7.9°C 89% 1.6 mph SW2.6 kmh SW 2.2 mph3.5 kmh 30.22 in1023.4 mb 0.00 in0.0 mm 0.00 in/hr0.0 mm/hr 0.00 in0.0 mm
05:40 AM 49.3°F9.6°C 46.2°F7.9°C 89% 2.2 mph S3.5 kmh S 3.8 mph6.1 kmh 30.22 in1023.4 mb 0.00 in0.0 mm 0.00 in/hr0.0 mm/hr 0.00 in0.0 mm
05:35 AM 49.3°F9.6°C 46.2°F7.9°C 89% 1.6 mph S2.6 kmh S 3.1 mph5.0 kmh 30.22 in1023.4 mb 0.00 in0.0 mm 0.00 in/hr0.0 mm/hr 0.00 in0.0 mm
05:30 AM 49.3°F9.6°C 46.2°F7.9°C 89% 1.6 mph SW2.6 kmh SW 2.2 mph3.5 kmh 30.22 in1023.4 mb 0.00 in0.0 mm 0.00 in/hr0.0 mm/hr 0.00 in0.0 mm
05:25 AM 49.3°F9.6°C 46.2°F7.9°C 89% 0.7 mph SE1.1 kmh SE 1.6 mph2.6 kmh 30.22 in1023.4 mb 0.00 in0.0 mm 0.00 in/hr0.0 mm/hr 0.00 in0.0 mm
05:20 AM 49.3°F9.6°C 46.2°F7.9°C 89% Calm Calm 1.6 mph2.6 kmh 30.22 in1023.4 mb 0.00 in0.0 mm 0.00 in/hr0.0 mm/hr 0.00 in0.0 mm
05:15 AM 49.3°F9.6°C 46.2°F7.9°C 89% 0.7 mph SW1.1 kmh SW 1.6 mph2.6 kmh 30.22 in1023.4 mb 0.00 in0.0 mm 0.00 in/hr0.0 mm/hr 0.00 in0.0 mm
05:10 AM 49.3°F9.6°C 46.2°F7.9°C 89% 0.7 mph SW1.1 kmh SW 2.2 mph3.5 kmh 30.21 in1023.0 mb 0.00 in0.0 mm 0.00 in/hr0.0 mm/hr 0.00 in0.0 mm
05:05 AM 49.3°F9.6°C 46.2°F7.9°C 89% 1.6 mph SW2.6 kmh SW 2.2 mph3.5 kmh 30.21 in1023.0 mb 0.00 in0.0 mm 0.00 in/hr0.0 mm/hr 0.00 in0.0 mm
05:00 AM 49.3°F9.6°C 46.2°F7.9°C 89% 1.6 mph SW2.6 kmh SW 2.2 mph3.5 kmh 30.22 in1023.4 mb 0.00 in0.0 mm 0.00 in/hr0.0 mm/hr 0.00 in0.0 mm
04:55 AM 49.3°F9.6°C 46.2°F7.9°C 89% 2.2 mph W3.5 kmh W 3.8 mph6.1 kmh 30.22 in1023.4 mb 0.00 in0.0 mm 0.00 in/hr0.0 mm/hr 0.00 in0.0 mm
04:50 AM 49.3°F9.6°C 46.2°F7.9°C 89% 1.6 mph W2.6 kmh W 2.2 mph3.5 kmh 30.21 in1023.0 mb 0.00 in0.0 mm 0.00 in/hr0.0 mm/hr 0.00 in0.0 mm
04:45 AM 49.3°F9.6°C 46.2°F7.9°C 89% 0.7 mph NW1.1 kmh NW 2.2 mph3.5 kmh 30.21 in1023.0 mb 0.00 in0.0 mm 0.00 in/hr0.0 mm/hr 0.00 in0.0 mm
04:40 AM 49.3°F9.6°C 46.2°F7.9°C 89% 1.6 mph NW2.6 kmh NW 2.2 mph3.5 kmh 30.21 in1023.0 mb 0.00 in0.0 mm 0.00 in/hr0.0 mm/hr 0.00 in0.0 mm
04:35 AM 49.3°F9.6°C 46.2°F7.9°C 89% 2.2 mph SW3.5 kmh SW 3.8 mph6.1 kmh 30.22 in1023.4 mb 0.00 in0.0 mm 0.00 in/hr0.0 mm/hr 0.00 in0.0 mm
04:30 AM 49.3°F9.6°C 46.2°F7.9°C 89% 2.2 mph WNW3.5 kmh WNW 4.5 mph7.2 kmh 30.22 in1023.4 mb 0.00 in0.0 mm 0.00 in/hr0.0 mm/hr 0.00 in0.0 mm
04:25 AM 49.3°F9.6°C 46.2°F7.9°C 89% 4.5 mph NW7.2 kmh NW 6.0 mph9.7 kmh 30.21 in1023.0 mb 0.00 in0.0 mm 0.00 in/hr0.0 mm/hr 0.00 in0.0 mm
04:20 AM 49.3°F9.6°C 46.2°F7.9°C 89% 3.1 mph W5.0 kmh W 4.5 mph7.2 kmh 30.21 in1023.0 mb 0.00 in0.0 mm 0.00 in/hr0.0 mm/hr 0.00 in0.0 mm
04:15 AM 49.3°F9.6°C 46.2°F7.9°C 89% 3.8 mph WNW6.1 kmh WNW 5.4 mph8.7 kmh 30.22 in1023.4 mb 0.00 in0.0 mm 0.00 in/hr0.0 mm/hr 0.00 in0.0 mm
04:10 AM 49.3°F9.6°C 46.2°F7.9°C 89% 5.4 mph SW8.7 kmh SW 6.0 mph9.7 kmh 30.21 in1023.0 mb 0.00 in0.0 mm 0.00 in/hr0.0 mm/hr 0.00 in0.0 mm
04:05 AM 49.3°F9.6°C 46.2°F7.9°C 89% 5.4 mph NW8.7 kmh NW 7.6 mph12.2 kmh 30.22 in1023.4 mb 0.00 in0.0 mm 0.00 in/hr0.0 mm/hr 0.00 in0.0 mm
04:00 AM 49.3°F9.6°C 45.9°F7.7°C 88% 4.5 mph W7.2 kmh W 6.9 mph11.1 kmh 30.21 in1023.0 mb 0.00 in0.0 mm 0.00 in/hr0.0 mm/hr 0.00 in0.0 mm
03:55 AM 49.3°F9.6°C 45.9°F7.7°C 88% 3.1 mph S5.0 kmh S 5.4 mph8.7 kmh 30.21 in1023.0 mb 0.00 in0.0 mm 0.00 in/hr0.0 mm/hr 0.00 in0.0 mm
03:50 AM 49.3°F9.6°C 45.9°F7.7°C 88% 3.8 mph W6.1 kmh W 5.4 mph8.7 kmh 30.21 in1023.0 mb 0.00 in0.0 mm 0.00 in/hr0.0 mm/hr 0.00 in0.0 mm
03:45 AM 49.3°F9.6°C 45.9°F7.7°C 88% 4.5 mph W7.2 kmh W 7.6 mph12.2 kmh 30.22 in1023.4 mb 0.00 in0.0 mm 0.00 in/hr0.0 mm/hr 0.00 in0.0 mm
03:40 AM 49.3°F9.6°C 45.9°F7.7°C 88% 3.8 mph NW6.1 kmh NW 6.0 mph9.7 kmh 30.21 in1023.0 mb 0.00 in0.0 mm 0.00 in/hr0.0 mm/hr 0.00 in0.0 mm
03:35 AM 49.3°F9.6°C 45.9°F7.7°C 88% 3.1 mph W5.0 kmh W 5.4 mph8.7 kmh 30.22 in1023.4 mb 0.00 in0.0 mm 0.00 in/hr0.0 mm/hr 0.00 in0.0 mm
03:30 AM 49.3°F9.6°C 45.9°F7.7°C 88% 5.4 mph W8.7 kmh W 6.9 mph11.1 kmh 30.22 in1023.4 mb 0.00 in0.0 mm 0.00 in/hr0.0 mm/hr 0.00 in0.0 mm
03:25 AM 49.3°F9.6°C 45.9°F7.7°C 88% 3.1 mph NW5.0 kmh NW 6.0 mph9.7 kmh 30.22 in1023.4 mb 0.00 in0.0 mm 0.00 in/hr0.0 mm/hr 0.00 in0.0 mm
03:20 AM 49.3°F9.6°C 45.9°F7.7°C 88% 3.1 mph W5.0 kmh W 6.0 mph9.7 kmh 30.22 in1023.4 mb 0.00 in0.0 mm 0.00 in/hr0.0 mm/hr 0.00 in0.0 mm
03:15 AM 49.3°F9.6°C 45.9°F7.7°C 88% 3.8 mph W6.1 kmh W 7.6 mph12.2 kmh 30.22 in1023.4 mb 0.00 in0.0 mm 0.00 in/hr0.0 mm/hr 0.00 in0.0 mm
03:10 AM 49.3°F9.6°C 45.9°F7.7°C 88% 4.5 mph NW7.2 kmh NW 6.0 mph9.7 kmh 30.22 in1023.4 mb 0.00 in0.0 mm 0.00 in/hr0.0 mm/hr 0.00 in0.0 mm
03:05 AM 49.1°F9.5°C 45.7°F7.6°C 88% 3.8 mph W6.1 kmh W 6.0 mph9.7 kmh 30.22 in1023.4 mb 0.00 in0.0 mm 0.00 in/hr0.0 mm/hr 0.00 in0.0 mm
03:00 AM 49.1°F9.5°C 45.7°F7.6°C 88% 3.8 mph W6.1 kmh W 6.0 mph9.7 kmh 30.22 in1023.4 mb 0.00 in0.0 mm 0.00 in/hr0.0 mm/hr 0.00 in0.0 mm
02:55 AM 49.1°F9.5°C 45.7°F7.6°C 88% 3.8 mph W6.1 kmh W 5.4 mph8.7 kmh 30.22 in1023.4 mb 0.00 in0.0 mm 0.00 in/hr0.0 mm/hr 0.00 in0.0 mm
02:50 AM 49.1°F9.5°C 45.7°F7.6°C 88% 3.1 mph W5.0 kmh W 4.5 mph7.2 kmh 30.22 in1023.4 mb 0.00 in0.0 mm 0.00 in/hr0.0 mm/hr 0.00 in0.0 mm
02:45 AM 49.1°F9.5°C 45.7°F7.6°C 88% 3.1 mph W5.0 kmh W 4.5 mph7.2 kmh 30.22 in1023.4 mb 0.00 in0.0 mm 0.00 in/hr0.0 mm/hr 0.00 in0.0 mm
02:40 AM 49.1°F9.5°C 45.7°F7.6°C 88% 3.8 mph W6.1 kmh W 5.4 mph8.7 kmh 30.22 in1023.4 mb 0.00 in0.0 mm 0.00 in/hr0.0 mm/hr 0.00 in0.0 mm
02:35 AM 49.1°F9.5°C 45.7°F7.6°C 88% 3.8 mph NW6.1 kmh NW 5.4 mph8.7 kmh 30.22 in1023.4 mb 0.00 in0.0 mm 0.00 in/hr0.0 mm/hr 0.00 in0.0 mm
02:30 AM 48.9°F9.4°C 45.5°F7.5°C 88% 5.4 mph NW8.7 kmh NW 7.6 mph12.2 kmh 30.22 in1023.4 mb 0.00 in0.0 mm 0.00 in/hr0.0 mm/hr 0.00 in0.0 mm
02:25 AM 48.9°F9.4°C 45.5°F7.5°C 88% 4.5 mph NW7.2 kmh NW 6.0 mph9.7 kmh 30.22 in1023.4 mb 0.00 in0.0 mm 0.00 in/hr0.0 mm/hr 0.00 in0.0 mm
02:20 AM 48.9°F9.4°C 45.5°F7.5°C 88% 4.5 mph NW7.2 kmh NW 6.0 mph9.7 kmh 30.22 in1023.4 mb 0.00 in0.0 mm 0.00 in/hr0.0 mm/hr 0.00 in0.0 mm
02:15 AM 48.9°F9.4°C 45.5°F7.5°C 88% 3.8 mph W6.1 kmh W 6.0 mph9.7 kmh 30.22 in1023.4 mb 0.00 in0.0 mm 0.00 in/hr0.0 mm/hr 0.00 in0.0 mm
02:10 AM 48.9°F9.4°C 45.5°F7.5°C 88% 3.1 mph NW5.0 kmh NW 5.4 mph8.7 kmh 30.23 in1023.7 mb 0.00 in0.0 mm 0.00 in/hr0.0 mm/hr 0.00 in0.0 mm
02:05 AM 48.9°F9.4°C 45.5°F7.5°C 88% 3.8 mph W6.1 kmh W 5.4 mph8.7 kmh 30.23 in1023.7 mb 0.00 in0.0 mm 0.00 in/hr0.0 mm/hr 0.00 in0.0 mm
02:00 AM 48.9°F9.4°C 45.5°F7.5°C 88% 4.5 mph SW7.2 kmh SW 8.3 mph13.4 kmh 30.23 in1023.7 mb 0.00 in0.0 mm 0.00 in/hr0.0 mm/hr 0.00 in0.0 mm
01:55 AM 48.9°F9.4°C 45.5°F7.5°C 88% 3.8 mph W6.1 kmh W 4.5 mph7.2 kmh 30.23 in1023.7 mb 0.00 in0.0 mm 0.00 in/hr0.0 mm/hr 0.00 in0.0 mm
01:50 AM 48.9°F9.4°C 45.5°F7.5°C 88% 4.5 mph W7.2 kmh W 6.9 mph11.1 kmh 30.23 in1023.7 mb 0.00 in0.0 mm 0.00 in/hr0.0 mm/hr 0.00 in0.0 mm
01:45 AM 48.9°F9.4°C 45.5°F7.5°C 88% 4.5 mph SW7.2 kmh SW 6.0 mph9.7 kmh 30.23 in1023.7 mb 0.00 in0.0 mm 0.00 in/hr0.0 mm/hr 0.00 in0.0 mm
01:40 AM 48.7°F9.3°C 45.3°F7.4°C 88% 4.5 mph NW7.2 kmh NW 6.9 mph11.1 kmh 30.23 in1023.7 mb 0.00 in0.0 mm 0.00 in/hr0.0 mm/hr 0.00 in0.0 mm
01:35 AM 48.7°F9.3°C 45.3°F7.4°C 88% 5.4 mph NW8.7 kmh NW 8.3 mph13.4 kmh 30.23 in1023.7 mb 0.00 in0.0 mm 0.00 in/hr0.0 mm/hr 0.00 in0.0 mm
01:30 AM 48.7°F9.3°C 45.3°F7.4°C 88% 5.4 mph NW8.7 kmh NW 7.6 mph12.2 kmh 30.23 in1023.7 mb 0.00 in0.0 mm 0.00 in/hr0.0 mm/hr 0.00 in0.0 mm
01:25 AM 48.7°F9.3°C 45.0°F7.2°C 87% 3.8 mph NW6.1 kmh NW 6.9 mph11.1 kmh 30.22 in1023.4 mb 0.00 in0.0 mm 0.00 in/hr0.0 mm/hr 0.00 in0.0 mm
01:20 AM 48.7°F9.3°C 45.0°F7.2°C 87% 5.4 mph SW8.7 kmh SW 6.9 mph11.1 kmh 30.22 in1023.4 mb 0.00 in0.0 mm 0.00 in/hr0.0 mm/hr 0.00 in0.0 mm
01:15 AM 48.7°F9.3°C 45.0°F7.2°C 87% 5.4 mph W8.7 kmh W 8.3 mph13.4 kmh 30.22 in1023.4 mb 0.00 in0.0 mm 0.00 in/hr0.0 mm/hr 0.00 in0.0 mm
01:10 AM 48.9°F9.4°C 45.2°F7.3°C 87% 3.1 mph NW5.0 kmh NW 4.5 mph7.2 kmh 30.22 in1023.4 mb 0.00 in0.0 mm 0.00 in/hr0.0 mm/hr 0.00 in0.0 mm
01:05 AM 49.3°F9.6°C 45.9°F7.7°C 88% 5.4 mph W8.7 kmh W 9.2 mph14.8 kmh 30.22 in1023.4 mb 0.00 in0.0 mm 0.00 in/hr0.0 mm/hr 0.00 in0.0 mm
01:00 AM 49.3°F9.6°C 45.9°F7.7°C 88% 5.4 mph W8.7 kmh W 9.2 mph14.8 kmh 30.22 in1023.4 mb 0.00 in0.0 mm 0.00 in/hr0.0 mm/hr 0.00 in0.0 mm
12:55 AM 49.3°F9.6°C 45.9°F7.7°C 88% 3.8 mph NW6.1 kmh NW 6.0 mph9.7 kmh 30.21 in1023.0 mb 0.00 in0.0 mm 0.00 in/hr0.0 mm/hr 0.00 in0.0 mm
12:50 AM 49.3°F9.6°C 45.9°F7.7°C 88% 4.5 mph W7.2 kmh W 6.9 mph11.1 kmh 30.21 in1023.0 mb 0.00 in0.0 mm 0.00 in/hr0.0 mm/hr 0.00 in0.0 mm
12:45 AM 49.5°F9.7°C 46.1°F7.8°C 88% 3.1 mph NW5.0 kmh NW 5.4 mph8.7 kmh 30.22 in1023.4 mb 0.00 in0.0 mm 0.00 in/hr0.0 mm/hr 0.00 in0.0 mm
12:40 AM 49.5°F9.7°C 46.1°F7.8°C 88% 3.8 mph NW6.1 kmh NW 5.4 mph8.7 kmh 30.21 in1023.0 mb 0.00 in0.0 mm 0.00 in/hr0.0 mm/hr 0.00 in0.0 mm
12:35 AM 49.5°F9.7°C 46.1°F7.8°C 88% 3.1 mph W5.0 kmh W 4.5 mph7.2 kmh 30.22 in1023.4 mb 0.00 in0.0 mm 0.00 in/hr0.0 mm/hr 0.00 in0.0 mm
12:30 AM 49.5°F9.7°C 46.1°F7.8°C 88% 3.1 mph SW5.0 kmh SW 5.4 mph8.7 kmh 30.21 in1023.0 mb 0.00 in0.0 mm 0.00 in/hr0.0 mm/hr 0.00 in0.0 mm
12:25 AM 49.5°F9.7°C 46.1°F7.8°C 88% 5.4 mph W8.7 kmh W 8.3 mph13.4 kmh 30.21 in1023.0 mb 0.00 in0.0 mm 0.00 in/hr0.0 mm/hr 0.00 in0.0 mm
12:20 AM 49.6°F9.8°C 46.2°F7.9°C 88% 3.8 mph W6.1 kmh W 6.0 mph9.7 kmh 30.21 in1023.0 mb 0.00 in0.0 mm 0.00 in/hr0.0 mm/hr 0.00 in0.0 mm
12:15 AM 49.6°F9.8°C 46.2°F7.9°C 88% 3.8 mph NW6.1 kmh NW 5.4 mph8.7 kmh 30.21 in1023.0 mb 0.00 in0.0 mm 0.00 in/hr0.0 mm/hr 0.00 in0.0 mm
12:10 AM 49.6°F9.8°C 46.2°F7.9°C 88% 3.8 mph W6.1 kmh W 4.5 mph7.2 kmh 30.21 in1023.0 mb 0.00 in0.0 mm 0.00 in/hr0.0 mm/hr 0.00 in0.0 mm
12:05 AM 49.6°F9.8°C 46.2°F7.9°C 88% 3.1 mph W5.0 kmh W 5.4 mph8.7 kmh 30.21 in1023.0 mb 0.00 in0.0 mm 0.00 in/hr0.0 mm/hr 0.00 in0.0 mm
12:00 AM 49.6°F9.8°C 46.2°F7.9°C 88% 3.1 mph NW5.0 kmh NW 4.5 mph7.2 kmh 30.21 in1023.0 mb 0.00 in0.0 mm 0.00 in/hr0.0 mm/hr 0.00 in0.0 mm